Archival Weather

Snohomish County (Paine Fld)

Everett, Washington (KPAE)

Report from: Wednesday, November 15, 2023 4:53 PM PST
Current time: Friday, June 21, 2024 1:19 AM PDT

Current weather – Weather history – Daily summaries
Weather forecast

Temperature5.0°C (41.0°F)
Wind chill2.8°C (37.1°F)
Dew point2.2°C (36.0°F)
Winds 5 kts (2.6 m/s, 5.8 mph) North-Northwest (330°)
Visibility10 mi. (16.1 km)
Clouds Scattered clouds 4,800 ft. (1,463 m)
Altimeter29.98 in.Hg (1015 mB)
Relative humidity82 %
Density altitude-1,179 ft. (-359 m)
Sea-level pressure101.6 kPa (1016 mB, 29.99 in.Hg)
Remarks Automated weather observing station with precipitation discriminator
Flight conditions Visual Meteorological Conditions
Raw dataKPAE 160053Z 33005KT 10SM SCT048 05/02 A2998 RMK AO2 SLP155 T00500022
An error has occurred. This application may no longer respond until reloaded. Reload 🗙